Time;durP1;ratioP1;P1;durP2;ratioP2;P2;SDS_P1;SDS_P2;PMS_P1;PMS_P2;Temp;Humidity;BMP_temperature;BMP_pressure;BME280_temperature;BME280_humidity;BME280_pressure;Samples;Min_cycle;Max_cycle;Signal;HPM_P1;HPM_P2
2022/09/16 00:00:18;;;;;;;13.50;1.80;;;10.90;99.90;;;;;;5033106;28;20141;-87
2022/09/16 00:02:43;;;;;;;7.90;1.45;;;10.80;99.90;;;;;;5033037;28;20072;-85
2022/09/16 00:05:09;;;;;;;8.90;1.40;;;10.90;99.90;;;;;;5040354;28;20053;-87
2022/09/16 00:07:35;;;;;;;9.23;1.65;;;10.90;99.90;;;;;;5034151;28;20049;-87
2022/09/16 00:10:02;;;;;;;5.32;0.95;;;10.90;99.90;;;;;;5049104;28;20057;-87
2022/09/16 00:12:27;;;;;;;6.60;1.30;;;10.90;99.90;;;;;;5033116;28;20808;-87
2022/09/16 00:14:54;;;;;;;7.25;1.50;;;11.00;99.90;;;;;;5015447;28;20067;-87
2022/09/16 00:17:20;;;;;;;5.63;1.13;;;11.00;99.90;;;;;;5033435;28;20275;-87
2022/09/16 00:19:48;;;;;;;7.63;1.60;;;11.10;99.90;;;;;;5016438;28;20084;-87
2022/09/16 00:22:14;;;;;;;9.65;1.00;;;11.10;99.90;;;;;;5033845;28;20049;-87
2022/09/16 00:24:39;;;;;;;5.72;0.80;;;11.10;99.90;;;;;;5016557;28;20045;-86
2022/09/16 00:27:05;;;;;;;7.90;1.10;;;11.30;99.90;;;;;;5032528;28;20044;-85
2022/09/16 00:29:30;;;;;;;6.78;0.98;;;11.20;99.90;;;;;;5016035;28;20052;-86
2022/09/16 00:31:56;;;;;;;8.32;1.60;;;11.20;99.90;;;;;;5032213;28;20454;-86
2022/09/16 00:34:22;;;;;;;5.40;0.90;;;11.20;99.90;;;;;;5015866;28;20037;-87
2022/09/16 00:36:48;;;;;;;4.60;0.90;;;11.30;99.90;;;;;;5033809;28;20136;-87
2022/09/16 00:39:13;;;;;;;5.75;0.93;;;11.30;99.90;;;;;;5032193;28;20069;-88
2022/09/16 00:41:39;;;;;;;12.73;1.38;;;11.30;99.90;;;;;;5016922;28;20046;-86
2022/09/16 00:44:26;;;;;;;9.23;1.17;;;11.30;99.90;;;;;;5032505;28;20471;-87
2022/09/16 00:46:53;;;;;;;7.22;1.10;;;11.30;99.90;;;;;;5051485;28;20046;-87
2022/09/16 00:49:29;;;;;;;10.23;1.30;;;11.30;99.90;;;;;;5032098;28;20041;-87
2022/09/16 00:52:00;;;;;;;5.97;0.80;;;11.30;99.90;;;;;;5030903;28;20045;-87
2022/09/16 00:54:28;;;;;;;6.35;0.93;;;11.30;99.90;;;;;;5031829;28;20048;-87
2022/09/16 00:56:57;;;;;;;8.07;0.82;;;11.40;99.90;;;;;;5033151;28;20080;-87
2022/09/16 00:59:30;;;;;;;5.20;1.10;;;11.40;99.90;;;;;;5033121;28;20049;-87
2022/09/16 01:01:59;;;;;;;5.57;0.88;;;11.40;99.90;;;;;;5028651;28;20115;-87
2022/09/16 01:04:35;;;;;;;11.80;1.35;;;11.40;99.90;;;;;;5032446;28;20046;-87
2022/09/16 01:07:02;;;;;;;8.63;0.90;;;11.40;99.90;;;;;;5029802;28;20124;-87
2022/09/16 01:09:29;;;;;;;8.13;1.63;;;11.40;99.90;;;;;;5032378;28;20398;-87
2022/09/16 01:11:55;;;;;;;8.30;1.20;;;11.50;99.90;;;;;;5032828;28;20057;-87
2022/09/16 01:17:37;;;;;;;8.75;1.13;;;11.50;99.90;;;;;;5053572;28;20053;-87
2022/09/16 01:20:09;;;;;;;8.93;0.93;;;11.50;99.90;;;;;;5031648;28;20136;-87
2022/09/16 01:23:02;;;;;;;5.57;0.90;;;11.50;99.90;;;;;;5030826;28;20454;-87
2022/09/16 01:26:05;;;;;;;6.97;1.00;;;11.40;99.90;;;;;;5031794;28;20053;-87
2022/09/16 01:28:52;;;;;;;5.07;0.75;;;11.40;99.90;;;;;;5031487;28;20102;-87
2022/09/16 01:31:39;;;;;;;5.43;0.77;;;11.30;99.90;;;;;;5029149;28;20037;-87
2022/09/16 01:34:19;;;;;;;4.28;1.00;;;11.30;99.90;;;;;;5029838;28;20041;-87
2022/09/16 01:37:07;;;;;;;9.77;1.20;;;11.30;99.90;;;;;;5044947;28;20511;-88
2022/09/16 01:40:10;;;;;;;4.88;0.88;;;11.30;99.90;;;;;;5031450;28;20049;-88
2022/09/16 01:42:39;;;;;;;3.92;0.95;;;11.30;99.90;;;;;;5031575;28;20049;-87
2022/09/16 01:45:29;;;;;;;5.63;0.90;;;11.30;99.90;;;;;;5031199;28;20612;-87
2022/09/16 01:48:18;;;;;;;9.68;0.73;;;11.30;99.90;;;;;;5028867;28;20045;-88
2022/09/16 01:51:09;;;;;;;14.35;1.17;;;11.30;99.90;;;;;;5030563;28;20072;-88
2022/09/16 01:53:45;;;;;;;6.53;0.90;;;11.30;99.90;;;;;;5028266;28;20124;-88
2022/09/16 01:56:23;;;;;;;7.25;0.80;;;11.20;99.90;;;;;;5047717;28;20041;-87
2022/09/16 01:59:19;;;;;;;11.43;1.00;;;11.20;99.90;;;;;;5054686;28;20038;-88
2022/09/16 02:01:55;;;;;;;1.33;0.50;;;11.20;99.90;;;;;;5029152;28;20043;-88
2022/09/16 02:04:28;;;;;;;3.55;0.70;;;11.20;99.90;;;;;;5026500;28;20459;-87
2022/09/16 02:06:56;;;;;;;4.70;0.90;;;11.20;99.90;;;;;;5032355;28;20045;-87
2022/09/16 02:09:29;;;;;;;9.80;0.85;;;11.20;99.90;;;;;;5030883;28;20067;-88
2022/09/16 02:11:57;;;;;;;7.75;0.88;;;11.10;99.90;;;;;;5031701;28;20049;-88
2022/09/16 02:14:26;;;;;;;6.50;0.70;;;11.10;99.90;;;;;;5031708;28;20395;-87
2022/09/16 02:17:17;;;;;;;5.35;0.63;;;11.10;99.90;;;;;;5043799;28;20045;-87
2022/09/16 02:19:54;;;;;;;4.63;0.88;;;11.10;99.90;;;;;;5045811;28;20379;-88
2022/09/16 02:22:43;;;;;;;8.98;1.10;;;11.10;99.90;;;;;;5029095;28;20049;-87
2022/09/16 02:25:11;;;;;;;7.50;0.75;;;11.10;99.90;;;;;;5045845;28;20472;-88
2022/09/16 02:27:39;;;;;;;10.27;0.95;;;11.10;99.90;;;;;;5031445;28;20049;-87
2022/09/16 02:30:09;;;;;;;8.43;1.10;;;11.10;99.90;;;;;;5031434;28;20112;-87
2022/09/16 02:32:40;;;;;;;3.50;0.68;;;11.10;99.90;;;;;;5030364;28;20053;-88
2022/09/16 02:35:11;;;;;;;5.85;1.15;;;11.10;99.90;;;;;;5026066;28;20443;-87
2022/09/16 02:37:46;;;;;;;4.50;0.63;;;11.10;99.90;;;;;;5029970;28;20119;-87
2022/09/16 02:40:19;;;;;;;5.22;0.77;;;11.10;99.90;;;;;;5031225;28;20041;-87
2022/09/16 02:42:45;;;;;;;13.80;1.33;;;11.10;99.90;;;;;;5031252;28;20447;-88
2022/09/16 02:45:11;;;;;;;10.25;0.85;;;11.10;99.90;;;;;;5014058;28;20116;-87
2022/09/16 02:48:05;;;;;;;3.90;0.70;;;11.00;99.90;;;;;;5030261;28;20041;-87
2022/09/16 02:50:45;;;;;;;7.07;0.93;;;11.00;99.90;;;;;;5030721;28;20037;-86
2022/09/16 02:53:20;;;;;;;7.53;1.00;;;10.90;99.90;;;;;;5029359;28;20056;-87
2022/09/16 02:55:55;;;;;;;9.13;0.98;;;10.90;99.90;;;;;;5055193;28;20050;-88
2022/09/16 02:58:21;;;;;;;6.80;1.08;;;10.80;99.90;;;;;;5030427;28;20045;-87
2022/09/16 03:00:50;;;;;;;5.53;0.95;;;10.80;99.90;;;;;;5031267;28;20044;-87
2022/09/16 03:03:17;;;;;;;7.45;1.23;;;10.80;99.90;;;;;;5031269;28;20441;-87
2022/09/16 03:06:04;;;;;;;6.97;1.33;;;10.70;99.90;;;;;;5029529;28;20053;-87
2022/09/16 03:08:31;;;;;;;8.98;1.02;;;10.70;99.90;;;;;;5045238;28;20050;-88
2022/09/16 03:11:22;;;;;;;7.32;1.20;;;10.70;99.90;;;;;;5030262;28;20048;-88
2022/09/16 03:13:59;;;;;;;8.25;1.10;;;10.70;99.90;;;;;;5030616;28;20037;-87
2022/09/16 03:17:15;;;;;;;10.80;1.17;;;10.80;99.90;;;;;;5056157;28;20077;-87
2022/09/16 03:20:09;;;;;;;5.25;0.95;;;10.80;99.90;;;;;;5056571;28;20049;-87
2022/09/16 03:23:07;;;;;;;5.72;0.90;;;10.80;99.90;;;;;;5036323;28;20057;-87
2022/09/16 03:25:56;;;;;;;7.18;1.20;;;10.80;99.90;;;;;;5032071;28;20057;-87
2022/09/16 03:28:48;;;;;;;9.57;1.10;;;10.90;99.90;;;;;;5045403;28;20124;-88
2022/09/16 03:31:31;;;;;;;4.78;1.20;;;10.90;99.90;;;;;;5055822;28;20095;-87
2022/09/16 03:34:02;;;;;;;8.15;1.13;;;10.90;99.90;;;;;;5032207;28;20066;-88
2022/09/16 03:36:33;;;;;;;6.97;1.60;;;10.90;99.90;;;;;;5034178;28;20049;-87
2022/09/16 03:39:01;;;;;;;9.32;1.48;;;10.90;99.90;;;;;;5035030;28;20053;-88
2022/09/16 03:41:29;;;;;;;9.73;1.52;;;10.90;99.90;;;;;;5033577;28;20115;-87
2022/09/16 03:43:57;;;;;;;5.90;1.13;;;11.00;99.90;;;;;;5050514;28;20068;-88
2022/09/16 03:46:25;;;;;;;5.97;1.15;;;10.90;99.90;;;;;;5033645;28;20132;-87
2022/09/16 03:48:51;;;;;;;7.35;1.30;;;10.90;99.90;;;;;;5034443;28;20041;-88
2022/09/16 03:51:17;;;;;;;8.52;1.58;;;10.90;99.90;;;;;;5049709;28;20406;-87
2022/09/16 03:53:42;;;;;;;9.77;1.65;;;10.90;99.90;;;;;;5033562;28;20065;-87
2022/09/16 03:56:08;;;;;;;8.90;1.45;;;10.80;99.90;;;;;;5033185;28;20041;-87
2022/09/16 03:58:34;;;;;;;10.40;1.98;;;10.70;99.90;;;;;;5034622;28;20037;-87
2022/09/16 04:00:59;;;;;;;8.48;1.60;;;10.80;99.90;;;;;;5033152;28;20049;-87
2022/09/16 04:03:25;;;;;;;4.78;1.40;;;10.70;99.90;;;;;;5016642;28;20054;-87
2022/09/16 04:05:52;;;;;;;6.72;1.20;;;10.70;99.90;;;;;;5032487;28;20051;-87
2022/09/16 04:08:18;;;;;;;8.88;1.60;;;10.70;99.90;;;;;;5033237;28;20049;-87
2022/09/16 04:10:57;;;;;;;11.65;2.10;;;10.70;99.90;;;;;;5033603;28;20052;-87
2022/09/16 04:13:23;;;;;;;11.65;1.67;;;10.70;99.90;;;;;;5031227;28;20060;-87
2022/09/16 04:15:49;;;;;;;9.20;1.60;;;10.70;99.90;;;;;;5032890;28;20483;-87
2022/09/16 04:18:15;;;;;;;9.48;1.85;;;10.80;99.90;;;;;;5034382;28;20041;-87
2022/09/16 04:20:41;;;;;;;13.40;2.35;;;10.80;99.90;;;;;;5033908;28;20436;-87
2022/09/16 04:23:07;;;;;;;8.35;1.75;;;10.70;99.90;;;;;;5032529;28;20129;-87
2022/09/16 04:25:33;;;;;;;4.03;1.00;;;10.70;99.90;;;;;;5032634;28;20051;-87
2022/09/16 04:27:59;;;;;;;8.48;1.50;;;10.70;99.90;;;;;;5032973;28;20042;-87
2022/09/16 04:30:25;;;;;;;7.72;1.30;;;10.70;99.90;;;;;;5032928;28;20538;-88
2022/09/16 04:32:55;;;;;;;8.00;1.25;;;10.70;99.90;;;;;;5032359;28;20120;-87
2022/09/16 04:35:22;;;;;;;9.50;1.45;;;10.70;99.90;;;;;;5033013;28;20041;-87
2022/09/16 04:37:48;;;;;;;5.90;1.60;;;10.60;99.90;;;;;;5031824;28;20563;-88
2022/09/16 04:40:15;;;;;;;6.50;1.45;;;10.60;99.90;;;;;;5034206;28;20128;-87
2022/09/16 04:42:40;;;;;;;12.38;1.88;;;10.60;99.90;;;;;;5031972;28;20049;-87
2022/09/16 04:45:07;;;;;;;4.60;1.33;;;10.60;99.90;;;;;;5032196;28;20048;-88
2022/09/16 04:47:32;;;;;;;13.93;1.60;;;10.60;99.90;;;;;;5048731;28;20049;-87
2022/09/16 04:49:58;;;;;;;9.93;1.30;;;10.50;99.90;;;;;;5032378;28;20091;-87
2022/09/16 04:52:24;;;;;;;6.75;1.30;;;10.50;99.90;;;;;;5032244;28;20049;-88
2022/09/16 04:54:49;;;;;;;4.95;1.45;;;10.40;99.90;;;;;;5032156;28;20103;-87
2022/09/16 04:57:18;;;;;;;5.95;1.58;;;10.50;99.90;;;;;;5032282;28;20484;-87
2022/09/16 04:59:44;;;;;;;10.07;1.92;;;10.40;99.90;;;;;;5016191;28;20069;-87
2022/09/16 05:02:10;;;;;;;3.28;0.90;;;10.40;99.90;;;;;;5032300;28;20406;-86
2022/09/16 05:04:36;;;;;;;108.25;5.97;;;10.30;99.90;;;;;;5032369;28;20104;-87
2022/09/16 05:07:01;;;;;;;9.45;1.60;;;10.30;99.90;;;;;;5030229;28;20486;-87
2022/09/16 05:09:27;;;;;;;7.97;1.40;;;10.40;99.90;;;;;;5011431;28;20407;-87
2022/09/16 05:11:53;;;;;;;4.18;1.30;;;10.40;99.90;;;;;;5013712;28;20480;-87
2022/09/16 05:14:19;;;;;;;9.07;1.40;;;10.40;99.90;;;;;;5014926;28;20053;-86
2022/09/16 05:16:45;;;;;;;10.73;1.67;;;10.40;99.90;;;;;;5018884;28;20037;-86
2022/09/16 05:19:12;;;;;;;6.43;1.42;;;10.40;99.90;;;;;;5041471;28;20399;-87
2022/09/16 05:21:39;;;;;;;7.25;1.45;;;10.40;99.90;;;;;;5034237;28;20070;-87
2022/09/16 05:24:07;;;;;;;11.77;1.63;;;10.30;99.90;;;;;;5009599;28;20050;-86
2022/09/16 05:26:35;;;;;;;15.23;1.88;;;10.30;99.90;;;;;;5011455;28;20096;-87
2022/09/16 05:29:02;;;;;;;12.38;1.33;;;10.30;99.90;;;;;;5029095;28;20037;-87
2022/09/16 05:31:30;;;;;;;11.80;1.52;;;10.20;99.90;;;;;;5032413;28;20383;-87
2022/09/16 05:34:15;;;;;;;4.60;1.10;;;10.20;99.90;;;;;;5027923;28;20148;-86
2022/09/16 05:36:42;;;;;;;11.32;1.30;;;10.20;99.90;;;;;;5053080;28;20091;-87
2022/09/16 05:39:12;;;;;;;9.40;1.13;;;10.20;99.90;;;;;;5032245;28;20080;-87
2022/09/16 05:41:38;;;;;;;9.85;1.40;;;10.20;99.90;;;;;;5032619;28;20068;-88
2022/09/16 05:44:07;;;;;;;8.30;1.23;;;10.10;99.90;;;;;;5029286;28;20466;-87
2022/09/16 05:46:33;;;;;;;9.02;1.70;;;10.10;99.90;;;;;;5028765;28;20080;-87
2022/09/16 05:48:59;;;;;;;7.90;1.20;;;10.10;99.90;;;;;;5049384;28;20057;-87
2022/09/16 05:51:30;;;;;;;16.15;1.90;;;10.20;99.90;;;;;;5034297;28;20529;-87
2022/09/16 05:53:58;;;;;;;8.85;1.50;;;10.20;99.90;;;;;;5033066;28;20046;-86
2022/09/16 05:56:26;;;;;;;9.20;1.13;;;10.20;99.90;;;;;;5032952;28;20085;-86
2022/09/16 05:58:53;;;;;;;11.48;1.58;;;10.20;99.90;;;;;;5032925;28;20061;-87
2022/09/16 06:01:21;;;;;;;10.93;1.50;;;10.20;99.90;;;;;;5032901;28;20140;-86
2022/09/16 06:03:48;;;;;;;7.85;1.40;;;10.30;99.90;;;;;;5033108;28;20128;-88
2022/09/16 06:06:31;;;;;;;10.88;1.30;;;10.30;99.90;;;;;;5033013;28;20045;-87
2022/09/16 06:08:59;;;;;;;11.63;1.80;;;10.30;99.90;;;;;;5032606;28;20060;-86
2022/09/16 06:11:27;;;;;;;9.95;1.45;;;10.40;99.90;;;;;;5032368;28;20055;-87
2022/09/16 06:13:58;;;;;;;13.85;1.80;;;10.40;99.90;;;;;;5032498;28;20084;-87
2022/09/16 06:16:25;;;;;;;8.77;1.30;;;10.40;99.90;;;;;;5032803;28;20049;-87
2022/09/16 06:18:53;;;;;;;9.57;1.20;;;10.50;99.90;;;;;;5033613;28;20045;-87
2022/09/16 06:21:18;;;;;;;6.47;1.15;;;10.50;99.90;;;;;;5033967;28;20056;-87
2022/09/16 06:23:44;;;;;;;8.13;1.30;;;10.60;99.90;;;;;;5049244;28;20045;-86
2022/09/16 06:26:18;;;;;;;10.38;1.05;;;10.70;99.90;;;;;;5016112;28;20494;-87
2022/09/16 06:28:44;;;;;;;6.40;1.20;;;10.70;99.90;;;;;;5034244;28;20160;-88
2022/09/16 06:31:25;;;;;;;16.63;1.63;;;10.80;99.90;;;;;;5016050;28;20049;-87
2022/09/16 06:33:51;;;;;;;8.95;1.55;;;10.80;99.90;;;;;;5032102;28;20049;-87
2022/09/16 06:36:23;;;;;;;6.40;1.10;;;10.80;99.90;;;;;;5032725;28;20045;-86
2022/09/16 06:38:50;;;;;;;10.50;1.25;;;10.90;99.90;;;;;;5033268;28;20053;-87
2022/09/16 06:41:17;;;;;;;8.77;1.15;;;11.00;99.90;;;;;;5033796;28;20053;-87
2022/09/16 06:43:43;;;;;;;6.50;0.90;;;10.90;99.90;;;;;;5032773;28;20042;-88
2022/09/16 06:46:15;;;;;;;13.63;1.20;;;11.00;99.90;;;;;;5032586;28;20487;-87
2022/09/16 06:48:42;;;;;;;10.32;1.27;;;11.10;99.90;;;;;;5033453;28;20045;-87
2022/09/16 06:51:13;;;;;;;7.80;1.00;;;11.10;99.90;;;;;;5035997;28;20445;-88
2022/09/16 06:53:39;;;;;;;;;;;11.10;99.90;;;;;;5036786;28;20052;-88
2022/09/16 06:56:07;;;;;;;13.07;1.20;;;11.10;99.90;;;;;;5036861;28;19921;-87
2022/09/16 06:58:35;;;;;;;11.55;1.38;;;11.00;99.90;;;;;;5037423;28;20506;-87
2022/09/16 07:01:05;;;;;;;9.93;1.00;;;11.00;99.90;;;;;;5036902;28;20127;-86
2022/09/16 07:03:31;;;;;;;5.23;1.10;;;11.00;99.90;;;;;;5036021;28;20526;-88
2022/09/16 07:06:00;;;;;;;12.80;1.20;;;11.00;99.90;;;;;;5037477;28;20042;-87
2022/09/16 07:08:30;;;;;;;8.73;1.08;;;11.00;99.90;;;;;;5036726;28;20057;-89
2022/09/16 07:11:01;;;;;;;11.57;1.97;;;11.10;99.90;;;;;;5037251;28;20049;-88
2022/09/16 07:13:27;;;;;;;13.02;1.35;;;11.10;99.90;;;;;;5037223;28;20045;-88
2022/09/16 07:15:53;;;;;;;16.27;1.67;;;11.10;99.90;;;;;;5020118;28;20128;-88
2022/09/16 07:18:19;;;;;;;12.82;1.00;;;11.10;99.90;;;;;;5035869;28;20535;-87
2022/09/16 07:20:45;;;;;;;10.90;1.40;;;11.20;99.90;;;;;;5037095;28;20073;-88
2022/09/16 07:23:11;;;;;;;10.18;1.33;;;11.20;99.90;;;;;;5036051;28;20092;-87
2022/09/16 07:25:36;;;;;;;10.13;1.13;;;11.40;99.90;;;;;;5036309;28;20057;-90
2022/09/16 07:28:02;;;;;;;12.45;1.48;;;11.40;99.90;;;;;;5037305;28;20046;-90
2022/09/16 07:30:29;;;;;;;7.65;1.25;;;11.50;99.90;;;;;;5035772;28;20072;-90
2022/09/16 07:32:56;;;;;;;13.27;1.60;;;11.50;99.90;;;;;;5035871;28;20128;-89
2022/09/16 07:35:22;;;;;;;9.10;1.08;;;11.60;99.90;;;;;;5036774;28;20054;-89
2022/09/16 07:37:48;;;;;;;10.88;1.60;;;11.60;99.90;;;;;;5052370;28;20041;-84
2022/09/16 07:40:13;;;;;;;10.73;1.42;;;11.70;99.90;;;;;;5037142;28;20053;-89
2022/09/16 07:42:41;;;;;;;7.35;1.20;;;11.80;99.90;;;;;;5036020;28;20149;-89
2022/09/16 07:45:08;;;;;;;7.93;1.27;;;11.80;99.90;;;;;;5039367;28;20046;-89
2022/09/16 07:47:33;;;;;;;11.07;1.45;;;12.00;99.90;;;;;;5036855;28;20526;-88
2022/09/16 07:49:59;;;;;;;7.65;1.38;;;12.10;99.90;;;;;;5035634;28;20087;-88
2022/09/16 07:52:28;;;;;;;7.78;1.50;;;12.20;99.90;;;;;;5036221;28;20100;-91
2022/09/16 07:54:57;;;;;;;10.50;1.23;;;12.30;99.90;;;;;;5035927;28;20049;-87
2022/09/16 07:57:23;;;;;;;10.60;1.73;;;12.50;99.90;;;;;;5053092;28;20453;-89
2022/09/16 07:59:49;;;;;;;7.10;0.95;;;12.50;99.90;;;;;;5036880;28;20044;-91
2022/09/16 08:02:15;;;;;;;14.38;1.20;;;12.70;99.90;;;;;;5036297;28;20045;-88
2022/09/16 08:04:41;;;;;;;7.72;1.10;;;12.80;99.90;;;;;;5035073;28;20461;-88
2022/09/16 08:07:07;;;;;;;8.82;1.27;;;12.90;99.90;;;;;;5035620;28;20052;-89
2022/09/16 08:09:33;;;;;;;12.20;1.08;;;13.00;99.90;;;;;;5036146;28;20053;-90
2022/09/16 08:12:01;;;;;;;10.30;1.65;;;13.10;99.90;;;;;;5036582;28;20049;-89
2022/09/16 08:14:27;;;;;;;5.97;1.30;;;13.20;99.90;;;;;;5018623;28;20045;-88
2022/09/16 08:16:53;;;;;;;10.32;1.55;;;13.50;99.90;;;;;;5034983;28;20053;-92
2022/09/16 08:19:19;;;;;;;10.45;1.60;;;13.40;99.90;;;;;;5018616;28;20060;-88
2022/09/16 08:21:45;;;;;;;7.95;1.27;;;13.50;99.90;;;;;;5051920;28;20399;-94
2022/09/16 08:24:11;;;;;;;6.68;1.02;;;13.60;99.90;;;;;;5034898;28;20053;-92
2022/09/16 08:26:37;;;;;;;8.48;1.25;;;13.70;99.90;;;;;;5051661;28;20127;-91
2022/09/16 08:29:03;;;;;;;7.88;0.90;;;13.70;99.90;;;;;;5035130;28;20079;-90
2022/09/16 08:31:28;;;;;;;17.83;1.98;;;13.80;99.90;;;;;;5051368;28;20037;-90
2022/09/16 08:33:55;;;;;;;7.13;1.10;;;13.90;99.90;;;;;;5035062;28;20562;-90
2022/09/16 08:36:23;;;;;;;6.13;1.10;;;14.00;99.90;;;;;;5035421;28;20453;-91
2022/09/16 08:38:52;;;;;;;9.75;1.55;;;14.10;99.90;;;;;;5035283;28;20510;-92
2022/09/16 08:41:35;;;;;;;9.05;1.23;;;14.30;99.90;;;;;;5034865;28;20045;-92
2022/09/16 08:44:10;;;;;;;11.80;1.73;;;14.40;99.90;;;;;;5035351;28;20044;-91
2022/09/16 08:46:52;;;;;;;6.88;1.13;;;14.50;99.90;;;;;;5036036;28;20049;-87
2022/09/16 08:49:40;;;;;;;7.03;1.50;;;14.70;99.90;;;;;;5034746;28;20495;-89
2022/09/16 08:52:31;;;;;;;8.93;1.77;;;14.90;99.90;;;;;;5036832;28;20049;-95
2022/09/16 08:55:13;;;;;;;11.55;1.67;;;15.30;99.90;;;;;;5034985;28;20151;-89
2022/09/16 08:57:52;;;;;;;9.43;1.30;;;15.60;99.90;;;;;;5034685;28;20162;-87
2022/09/16 09:00:18;;;;;;;9.18;1.30;;;15.80;99.90;;;;;;5035801;28;20048;-90
2022/09/16 09:02:51;;;;;;;11.25;1.77;;;15.90;99.90;;;;;;5034307;28;20483;-87
2022/09/16 09:05:31;;;;;;;13.18;1.50;;;15.80;99.90;;;;;;5051567;28;20046;-88
2022/09/16 09:08:35;;;;;;;13.02;1.50;;;15.40;99.90;;;;;;5035243;28;20132;-92
2022/09/16 09:11:09;;;;;;;9.43;1.67;;;14.80;99.90;;;;;;5034767;28;20049;-91
2022/09/16 09:14:02;;;;;;;13.90;2.15;;;14.30;99.90;;;;;;5052221;28;20049;-93
2022/09/16 09:16:54;;;;;;;10.30;1.67;;;14.50;99.90;;;;;;5033001;28;20116;-89
2022/09/16 09:19:43;;;;;;;11.00;1.80;;;14.80;99.90;;;;;;5038595;28;20140;-89
2022/09/16 09:22:38;;;;;;;14.85;1.90;;;15.20;99.90;;;;;;5041347;28;20113;-89
2022/09/16 09:25:29;;;;;;;15.45;1.80;;;15.60;99.90;;;;;;5040112;28;20042;-96
2022/09/16 09:28:05;;;;;;;12.60;1.70;;;16.00;99.90;;;;;;5035522;28;20060;-90
2022/09/16 09:30:34;;;;;;;7.75;1.83;;;16.40;99.90;;;;;;5035444;28;20048;-89
2022/09/16 09:33:33;;;;;;;7.50;1.88;;;16.80;99.90;;;;;;5053116;28;20128;-90
2022/09/16 09:36:26;;;;;;;6.68;1.35;;;17.20;99.90;;;;;;5036447;28;20045;-88
2022/09/16 09:39:15;;;;;;;11.02;1.30;;;17.60;99.90;;;;;;5037848;28;20049;-95
2022/09/16 09:41:51;;;;;;;12.57;1.95;;;18.00;99.90;;;;;;5035224;28;20050;-87
2022/09/16 09:44:37;;;;;;;8.07;1.30;;;18.40;99.90;;;;;;5037461;28;20084;-89
2022/09/16 09:47:09;;;;;;;11.10;1.85;;;18.80;99.70;;;;;;5035812;28;20451;-89
2022/09/16 09:49:45;;;;;;;7.68;1.25;;;19.10;99.90;;;;;;5035672;28;20386;-94
2022/09/16 09:52:46;;;;;;;5.65;1.30;;;19.50;95.60;;;;;;5035428;28;20041;-88
2022/09/16 09:55:17;;;;;;;8.38;1.33;;;19.70;91.00;;;;;;5033778;28;20176;-90
2022/09/16 09:57:58;;;;;;;7.10;1.58;;;20.30;80.00;;;;;;5050477;28;20057;-87
2022/09/16 10:00:24;;;;;;;8.27;1.25;;;20.20;75.00;;;;;;5034791;28;20049;-86
2022/09/16 10:02:50;;;;;;;10.25;1.20;;;19.40;73.70;;;;;;5034933;28;20096;-87
2022/09/16 10:05:27;;;;;;;7.07;1.25;;;18.60;81.90;;;;;;5033389;28;20180;-89
2022/09/16 10:08:12;;;;;;;7.43;1.63;;;18.30;92.00;;;;;;5050112;28;20060;-88
2022/09/16 10:10:49;;;;;;;10.77;1.35;;;18.60;95.60;;;;;;5033230;28;20055;-92
2022/09/16 10:13:16;;;;;;;12.95;1.52;;;19.40;83.30;;;;;;5049803;28;20438;-94
2022/09/16 10:15:42;;;;;;;9.13;1.33;;;20.30;81.10;;;;;;5033329;28;20495;-89
2022/09/16 10:18:12;;;;;;;7.28;1.50;;;20.70;73.80;;;;;;5033580;28;20049;-88
2022/09/16 10:20:41;;;;;;;8.63;1.85;;;20.90;75.50;;;;;;5033258;28;20132;-88
2022/09/16 10:23:13;;;;;;;7.93;1.40;;;21.00;76.20;;;;;;5033109;28;20100;-87
2022/09/16 10:25:40;;;;;;;8.27;1.30;;;21.00;70.80;;;;;;5032818;28;20053;-87
2022/09/16 10:28:20;;;;;;;8.05;1.40;;;20.90;69.70;;;;;;5032506;28;20056;-88
2022/09/16 10:30:51;;;;;;;10.55;1.33;;;21.10;71.10;;;;;;5032520;28;20042;-87
2022/09/16 10:33:32;;;;;;;9.13;1.40;;;21.30;68.70;;;;;;5032678;28;20049;-86
2022/09/16 10:36:07;;;;;;;8.52;1.20;;;20.60;65.20;;;;;;5033484;28;20049;-86
2022/09/16 10:38:37;;;;;;;8.57;1.02;;;19.50;68.30;;;;;;5032857;28;20403;-89
2022/09/16 10:41:06;;;;;;;;;;;18.60;70.20;;;;;;5033775;28;20486;-86
2022/09/16 10:43:32;;;;;;;9.88;1.27;;;17.80;66.60;;;;;;5032641;28;19928;-86
2022/09/16 10:45:58;;;;;;;8.00;1.30;;;17.40;92.00;;;;;;5033795;28;20053;-87
2022/09/16 10:48:28;;;;;;;7.32;1.70;;;17.90;86.30;;;;;;5033530;28;20049;-87
2022/09/16 10:51:05;;;;;;;4.90;1.30;;;18.60;80.80;;;;;;5034604;28;20398;-91
2022/09/16 10:53:36;;;;;;;9.63;1.60;;;19.30;71.20;;;;;;5017536;28;20081;-86
2022/09/16 10:56:15;;;;;;;7.57;1.45;;;19.90;70.40;;;;;;5034087;28;20056;-86
2022/09/16 10:58:41;;;;;;;9.02;0.98;;;20.30;67.00;;;;;;5033015;28;20091;-88
2022/09/16 11:01:19;;;;;;;10.77;1.50;;;20.90;67.50;;;;;;5033680;28;20417;-87
2022/09/16 11:04:23;;;;;;;16.42;2.42;;;21.20;64.80;;;;;;5032378;28;20046;-86
2022/09/16 11:07:13;;;;;;;7.88;1.60;;;19.50;84.30;;;;;;5032432;28;20045;-85
2022/09/16 11:09:42;;;;;;;13.10;2.08;;;16.80;99.90;;;;;;5031852;28;20072;-86
2022/09/16 11:12:25;;;;;;;8.95;1.23;;;15.90;99.90;;;;;;5032272;28;20385;-84
2022/09/16 11:15:49;;;;;;;7.53;1.75;;;16.10;99.90;;;;;;5035820;28;20053;-84
2022/09/16 11:18:21;;;;;;;12.20;1.75;;;16.80;99.90;;;;;;5020036;28;20053;-85
2022/09/16 11:21:14;;;;;;;8.40;1.40;;;17.30;99.90;;;;;;5032269;28;20538;-86
2022/09/16 11:23:46;;;;;;;8.88;1.70;;;18.00;99.90;;;;;;5033366;28;20041;-89
2022/09/16 11:26:50;;;;;;;11.07;1.40;;;18.40;99.90;;;;;;5032017;28;20053;-86
2022/09/16 11:29:28;;;;;;;9.68;1.58;;;19.10;93.10;;;;;;5032073;28;20041;-87
2022/09/16 11:32:21;;;;;;;9.77;1.60;;;19.50;98.40;;;;;;5031721;28;20068;-87
2022/09/16 11:34:56;;;;;;;7.82;1.30;;;19.90;80.50;;;;;;5030954;28;20456;-90
2022/09/16 11:37:37;;;;;;;6.53;1.27;;;20.10;71.90;;;;;;5035999;28;20095;-89
2022/09/16 11:40:54;;;;;;;7.55;1.40;;;20.40;87.20;;;;;;5036252;28;20045;-90
2022/09/16 11:43:43;;;;;;;7.82;1.20;;;20.40;70.20;;;;;;5034878;28;20095;-89
2022/09/16 11:46:23;;;;;;;11.02;1.70;;;20.60;82.50;;;;;;5037065;28;20050;-88
2022/09/16 11:49:12;;;;;;;;;;;20.30;69.40;;;;;;5036367;28;20119;-89
2022/09/16 11:52:07;;;;;;;10.43;1.35;;;19.60;67.90;;;;;;5052276;28;19921;-90
2022/09/16 11:55:23;;;;;;;5.93;1.50;;;18.90;75.80;;;;;;5035864;28;20057;-88
2022/09/16 11:58:00;;;;;;;6.70;1.15;;;18.40;75.10;;;;;;5034913;28;20061;-90
2022/09/16 12:00:30;;;;;;;5.55;1.17;;;18.50;83.20;;;;;;5035950;28;20136;-90
2022/09/16 12:03:22;;;;;;;11.27;1.55;;;18.50;81.20;;;;;;5037110;28;20407;-90
2022/09/16 12:06:02;;;;;;;12.90;1.45;;;18.60;77.70;;;;;;5035295;28;20095;-87
2022/09/16 12:08:40;;;;;;;7.15;1.48;;;18.80;74.30;;;;;;5035201;28;20084;-88
2022/09/16 12:11:22;;;;;;;9.40;1.40;;;18.90;76.80;;;;;;5035294;28;20054;-88
2022/09/16 12:13:56;;;;;;;6.97;1.25;;;19.00;73.90;;;;;;5034990;28;20053;-91
2022/09/16 12:16:46;;;;;;;11.50;1.10;;;19.30;74.60;;;;;;5036830;28;20041;-93
2022/09/16 12:19:26;;;;;;;9.70;0.90;;;19.50;72.70;;;;;;5036291;28;20107;-87
2022/09/16 12:22:02;;;;;;;3.80;0.82;;;19.60;66.20;;;;;;5036006;28;20268;-93
2022/09/16 12:24:45;;;;;;;3.42;0.85;;;19.60;64.80;;;;;;5036276;28;20041;-89
2022/09/16 12:27:44;;;;;;;7.07;1.00;;;19.70;63.80;;;;;;5035287;28;20041;-88
2022/09/16 12:30:25;;;;;;;5.90;0.95;;;19.40;62.60;;;;;;5035177;28;20133;-90
2022/09/16 12:33:11;;;;;;;28.80;2.35;;;18.70;67.50;;;;;;5035526;28;20085;-89
2022/09/16 12:35:41;;;;;;;5.68;0.70;;;17.90;74.40;;;;;;5034477;28;20061;-86
2022/09/16 12:38:16;;;;;;;18.52;1.38;;;17.20;94.30;;;;;;5036619;28;20045;-89
2022/09/16 12:41:06;;;;;;;5.63;1.15;;;16.70;98.70;;;;;;5035723;28;20041;-87
2022/09/16 12:43:38;;;;;;;11.90;1.30;;;16.70;99.90;;;;;;5034683;28;20148;-86
2022/09/16 12:46:33;;;;;;;5.10;0.95;;;17.20;99.90;;;;;;5034701;28;20060;-87
2022/09/16 12:49:32;;;;;;;4.80;0.98;;;18.00;95.90;;;;;;5034479;28;20045;-88
2022/09/16 12:52:13;;;;;;;5.85;1.20;;;18.70;93.40;;;;;;5034235;28;20136;-89
2022/09/16 12:54:41;;;;;;;;;;;18.90;81.60;;;;;;5035052;28;20047;-93
2022/09/16 12:57:28;;;;;;;10.20;1.20;;;19.00;88.90;;;;;;5051493;28;19925;-91
2022/09/16 13:00:28;;;;;;;4.90;1.00;;;18.80;85.00;;;;;;5034573;28;20136;-92
2022/09/16 13:03:04;;;;;;;8.70;1.20;;;18.60;89.70;;;;;;5036388;28;20406;-91
2022/09/16 13:05:33;;;;;;;4.20;1.05;;;18.70;88.40;;;;;;5034263;28;20046;-89
2022/09/16 13:08:18;;;;;;;80.00;3.42;;;18.60;78.30;;;;;;5034311;28;20479;-89
2022/09/16 13:10:43;;;;;;;35.22;2.05;;;18.20;91.20;;;;;;5033671;28;20136;-88
2022/09/16 13:13:19;;;;;;;9.48;1.33;;;17.50;99.90;;;;;;5033845;28;20104;-89
2022/09/16 13:15:55;;;;;;;11.45;1.45;;;17.10;99.90;;;;;;5034270;28;20049;-88
2022/09/16 13:18:44;;;;;;;42.83;2.53;;;17.00;99.90;;;;;;5034552;28;20045;-88
2022/09/16 13:21:24;;;;;;;6.53;1.13;;;16.90;96.50;;;;;;5034561;28;20057;-93
2022/09/16 13:24:12;;;;;;;9.90;1.45;;;16.90;99.90;;;;;;5034528;28;20052;-90